Flushing, New York
Current Conditions -  °F | °C
As of 9:51 AM on Thursday 23 Oct 2014 (Local Time) from KLGA Reporting Station
Overcast Overcast  
Wind Chill: 52°   Ceiling: 1700
Heat Index: 52°   Visibility: 10mi
Dew Point: 46°   Wind: 15mph
Humidity: 80%   Direction: 340°NNW
Pressure: 29.7"   Gusts: 23mph
Location:  40.77°N, 73.82°W
Report Text: KLGA 231351Z 34013G20KT 10SM BKN017 OVC022 11/08 A2970 RMK AO2 PK WND 34026/1340 RAE33 SLP057 P0002 T01110078
Loading
Personal Weather Stations






























Interactive Weather Map
Tropical Storm Tracking
New forecast layout! Learn more

10-Day Weather Forecast

Advertisements
Track Severe Weather on mobile